Time;durP1;ratioP1;P1;durP2;ratioP2;P2;SDS_P1;SDS_P2;PMS_P1;PMS_P2;Temp;Humidity;BMP_temperature;BMP_pressure;BME280_temperature;BME280_humidity;BME280_pressure;Samples;Min_cycle;Max_cycle;Signal;HPM_P1;HPM_P2
2022/04/11 00:02:05;;;;;;;11.10;4.72;;;;;;;7.50;57.93;101860.44;4898116;29;20049;-52
2022/04/11 00:04:33;;;;;;;11.25;4.78;;;;;;;7.47;57.83;101858.16;4898397;29;20036;-51
2022/04/11 00:07:00;;;;;;;8.10;4.40;;;;;;;7.47;57.63;101855.47;4899840;29;20104;-48
2022/04/11 00:09:28;;;;;;;10.68;4.70;;;;;;;7.42;57.74;101856.13;4898841;29;20056;-53
2022/04/11 00:11:56;;;;;;;11.10;4.80;;;;;;;7.45;57.96;101860.28;4911477;29;20515;-50
2022/04/11 00:14:24;;;;;;;9.38;4.50;;;;;;;7.44;58.59;101847.78;4898704;29;20073;-51
2022/04/11 00:16:52;;;;;;;10.65;4.45;;;;;;;7.43;58.50;101840.69;4903830;29;20044;-50
2022/04/11 00:19:20;;;;;;;11.48;4.60;;;;;;;7.44;59.22;101836.94;4916096;29;20052;-51
2022/04/11 00:21:47;;;;;;;9.60;4.85;;;;;;;7.43;58.16;101837.97;4905972;29;20044;-50
2022/04/11 00:24:15;;;;;;;13.07;4.60;;;;;;;7.42;58.79;101844.44;4898271;29;20052;-46
2022/04/11 00:26:43;;;;;;;8.65;4.38;;;;;;;7.41;58.56;101835.50;4911200;29;20075;-49
2022/04/11 00:29:10;;;;;;;8.93;4.50;;;;;;;7.42;58.34;101833.59;4917016;29;20064;-51
2022/04/11 00:31:38;;;;;;;10.07;4.35;;;;;;;7.45;58.75;101833.16;4910679;29;20538;-47
2022/04/11 00:34:06;;;;;;;10.43;5.15;;;;;;;7.45;58.07;101833.16;4881710;29;20051;-52
2022/04/11 00:36:33;;;;;;;11.38;4.82;;;;;;;7.47;58.14;101831.06;4899801;29;20399;-49
2022/04/11 00:39:01;;;;;;;9.05;4.45;;;;;;;7.48;58.31;101827.31;4911953;29;20048;-50
2022/04/11 00:41:29;;;;;;;9.20;4.95;;;;;;;7.49;58.05;101815.41;4907157;29;20522;-49
2022/04/11 00:43:57;;;;;;;13.63;4.85;;;;;;;7.51;57.67;101816.00;4896965;29;20036;-48
2022/04/11 00:46:24;;;;;;;8.45;4.57;;;;;;;7.48;58.25;101816.47;4878569;29;20457;-49
2022/04/11 00:48:53;;;;;;;9.80;4.72;;;;;;;7.44;58.01;101812.53;4879839;29;20056;-49
2022/04/11 00:51:22;;;;;;;8.95;4.45;;;;;;;7.41;58.19;101804.84;4895115;29;20129;-50
2022/04/11 00:53:52;;;;;;;8.25;4.60;;;;;;;7.42;58.39;101806.50;4897948;29;20492;-50
2022/04/11 00:56:20;;;;;;;11.10;5.18;;;;;;;7.43;58.64;101805.44;4890592;29;20064;-50
2022/04/11 00:58:48;;;;;;;10.25;5.53;;;;;;;7.44;58.68;101804.41;4915877;29;20143;-49
2022/04/11 01:01:16;;;;;;;10.10;4.55;;;;;;;7.46;58.12;101802.28;4905913;29;20407;-52
2022/04/11 01:03:45;;;;;;;11.65;5.10;;;;;;;7.46;57.82;101796.88;4896423;29;20036;-50
2022/04/11 01:06:13;;;;;;;10.35;4.90;;;;;;;7.46;57.72;101800.41;4897991;29;20045;-50
2022/04/11 01:08:40;;;;;;;8.88;4.97;;;;;;;7.47;57.82;101799.34;4897012;29;20052;-46
2022/04/11 01:11:08;;;;;;;9.57;4.38;;;;;;;7.48;58.15;101789.34;4901560;29;20036;-49
2022/04/11 01:13:35;;;;;;;9.48;4.70;;;;;;;7.50;57.38;101787.22;4896486;29;20052;-50
2022/04/11 01:16:05;;;;;;;9.70;5.18;;;;;;;7.51;57.44;101786.19;4902894;29;20040;-48
2022/04/11 01:18:34;;;;;;;12.95;5.40;;;;;;;7.52;56.99;101790.53;4885699;29;20100;-50
2022/04/11 01:21:04;;;;;;;10.10;5.20;;;;;;;7.51;57.70;101783.47;4882019;29;20420;-50
2022/04/11 01:23:31;;;;;;;11.52;4.95;;;;;;;7.51;57.15;101788.88;4884062;29;20397;-51
2022/04/11 01:25:59;;;;;;;8.80;4.88;;;;;;;7.49;57.03;101785.56;4919058;29;20095;-50
2022/04/11 01:28:28;;;;;;;8.50;4.75;;;;;;;7.49;57.59;101791.00;4919849;29;20503;-50
2022/04/11 01:30:56;;;;;;;10.13;4.95;;;;;;;7.47;57.27;101782.25;4908706;29;20412;-49
2022/04/11 01:33:28;;;;;;;10.15;4.97;;;;;;;7.47;57.80;101782.25;4900544;29;20045;-49
2022/04/11 01:36:01;;;;;;;;;;;;;;;7.49;57.87;101784.75;4915791;29;20056;-50
2022/04/11 01:38:29;;;;;;;10.57;4.90;;;;;;;7.50;57.55;101781.78;4913005;29;19930;-50
2022/04/11 01:40:58;;;;;;;10.90;5.57;;;;;;;7.50;58.03;101783.69;4881607;29;20128;-51
2022/04/11 01:43:36;;;;;;;11.55;4.75;;;;;;;7.49;57.36;101791.00;4889570;29;20531;-50
2022/04/11 01:46:04;;;;;;;9.93;5.15;;;;;;;7.47;57.23;101782.25;4906406;29;20052;-49
2022/04/11 01:48:47;;;;;;;11.48;4.97;;;;;;;7.44;57.64;101778.09;4920286;29;20044;-48
2022/04/11 01:51:15;;;;;;;10.70;5.25;;;;;;;7.46;58.18;101786.03;4918715;29;20071;-50
2022/04/11 01:53:42;;;;;;;9.50;5.07;;;;;;;7.45;57.45;101778.91;4900897;29;20403;-50
2022/04/11 01:56:11;;;;;;;12.07;5.38;;;;;;;7.43;58.11;101781.03;4906867;29;20131;-49
2022/04/11 01:58:39;;;;;;;8.95;5.07;;;;;;;7.43;58.38;101781.03;4899547;29;20052;-47
2022/04/11 02:01:07;;;;;;;11.02;5.55;;;;;;;7.42;58.48;101784.81;4899906;29;20052;-45
2022/04/11 02:03:35;;;;;;;11.80;5.18;;;;;;;7.42;58.33;101785.63;4903291;29;20461;-44
2022/04/11 02:06:03;;;;;;;9.70;5.30;;;;;;;7.42;57.97;101785.63;4899427;29;20231;-45
2022/04/11 02:08:31;;;;;;;11.38;5.30;;;;;;;7.41;58.92;101780.44;4899501;29;20506;-45
2022/04/11 02:11:04;;;;;;;10.95;5.03;;;;;;;7.41;58.03;101783.97;4899754;29;20044;-45
2022/04/11 02:13:32;;;;;;;11.48;5.70;;;;;;;7.40;58.63;101781.47;4899688;29;20044;-48
2022/04/11 02:16:01;;;;;;;8.88;5.03;;;;;;;7.38;58.29;101772.72;4882515;29;20041;-44
2022/04/11 02:18:28;;;;;;;9.95;5.40;;;;;;;7.33;59.40;101776.13;4899475;29;20049;-45
2022/04/11 02:20:56;;;;;;;10.13;4.82;;;;;;;7.32;59.04;101779.06;4899283;29;20048;-49
2022/04/11 02:23:24;;;;;;;12.75;5.50;;;;;;;7.30;58.87;101775.75;4899476;29;20047;-52
2022/04/11 02:25:52;;;;;;;11.15;5.40;;;;;;;7.28;59.70;101777.84;4915100;29;20048;-51
2022/04/11 02:28:20;;;;;;;14.35;5.90;;;;;;;7.24;59.48;101783.72;4902112;29;20064;-51
2022/04/11 02:30:50;;;;;;;12.85;5.25;;;;;;;7.20;59.96;101781.66;4898927;29;20069;-51
2022/04/11 02:33:18;;;;;;;12.10;5.47;;;;;;;7.16;60.39;101781.28;4899912;29;20135;-49
2022/04/11 02:35:47;;;;;;;10.40;5.30;;;;;;;7.14;59.98;101787.97;4900854;29;20069;-44
2022/04/11 02:38:15;;;;;;;10.07;5.63;;;;;;;7.11;60.15;101783.81;4917940;29;20100;-46
2022/04/11 02:40:46;;;;;;;12.45;5.75;;;;;;;7.12;60.33;101784.63;4902915;29;20048;-46
2022/04/11 02:43:27;;;;;;;11.23;4.70;;;;;;;7.10;60.36;101790.28;4900600;29;20855;-50
2022/04/11 02:45:59;;;;;;;10.10;5.10;;;;;;;7.09;60.83;101780.50;4898965;29;20036;-51
2022/04/11 02:48:34;;;;;;;11.63;5.13;;;;;;;7.10;60.56;101782.16;4899051;29;20044;-47
2022/04/11 02:51:09;;;;;;;11.20;4.80;;;;;;;7.09;60.69;101780.50;4898860;29;20419;-53
2022/04/11 02:53:47;;;;;;;11.32;5.47;;;;;;;7.07;60.82;101777.19;4883716;29;20112;-53
2022/04/11 02:56:15;;;;;;;13.40;5.40;;;;;;;7.02;60.85;101771.59;4903710;29;20131;-50
2022/04/11 02:58:43;;;;;;;9.82;5.22;;;;;;;7.00;60.89;101777.25;4899512;29;20045;-45
2022/04/11 03:01:11;;;;;;;8.75;4.57;;;;;;;6.98;61.49;101783.94;4898830;29;20135;-45
2022/04/11 03:03:42;;;;;;;9.90;5.35;;;;;;;6.98;61.15;101768.50;4898762;29;20068;-47
2022/04/11 03:06:10;;;;;;;9.18;5.20;;;;;;;6.97;61.26;101776.84;4902121;29;20488;-46
2022/04/11 03:08:40;;;;;;;10.77;4.93;;;;;;;6.96;61.24;101777.91;4898744;29;20055;-46
2022/04/11 03:11:11;;;;;;;10.43;5.32;;;;;;;6.91;61.29;101767.72;4898805;29;20044;-45
2022/04/11 03:13:42;;;;;;;10.43;5.07;;;;;;;6.88;61.14;101770.88;4898459;29;20051;-50
2022/04/11 03:16:10;;;;;;;8.52;5.18;;;;;;;6.81;61.67;101762.81;4899544;29;20084;-50
2022/04/11 03:18:40;;;;;;;11.00;5.20;;;;;;;6.79;62.20;101759.47;4897659;29;20045;-50
2022/04/11 03:21:08;;;;;;;10.73;5.10;;;;;;;6.75;61.38;101750.13;4898598;29;20049;-50
2022/04/11 03:23:36;;;;;;;7.93;4.68;;;;;;;6.70;62.13;101758.06;4898309;29;20049;-53
2022/04/11 03:26:04;;;;;;;10.48;5.45;;;;;;;6.67;62.35;101761.22;4916021;29;20076;-53
2022/04/11 03:28:34;;;;;;;9.35;5.40;;;;;;;6.64;62.35;101758.97;4917156;29;20507;-51
2022/04/11 03:31:02;;;;;;;12.43;5.65;;;;;;;6.66;61.85;101756.84;4911485;29;20056;-50
2022/04/11 03:33:29;;;;;;;9.40;5.15;;;;;;;6.65;62.23;101752.50;4897030;29;20037;-52
2022/04/11 03:35:58;;;;;;;12.32;5.43;;;;;;;6.61;62.44;101754.81;4899391;29;20135;-50
2022/04/11 03:38:26;;;;;;;8.85;4.90;;;;;;;6.60;62.31;101750.44;4897593;29;20096;-53
2022/04/11 03:40:55;;;;;;;9.82;5.32;;;;;;;6.64;62.68;101756.25;4898279;29;20037;-50
2022/04/11 03:43:23;;;;;;;9.68;5.13;;;;;;;6.65;62.39;101763.31;4897554;29;20045;-48
2022/04/11 03:45:51;;;;;;;10.15;5.45;;;;;;;6.65;62.45;101757.91;4930750;29;20040;-48
2022/04/11 03:48:20;;;;;;;11.73;5.50;;;;;;;6.64;62.32;101767.09;4916646;29;20048;-52
2022/04/11 03:50:48;;;;;;;10.45;5.22;;;;;;;6.61;62.79;101764.81;4917018;29;20130;-51
2022/04/11 03:53:16;;;;;;;11.25;5.70;;;;;;;6.58;62.37;101765.25;4916917;29;20111;-49
2022/04/11 03:55:48;;;;;;;14.63;6.00;;;;;;;6.54;62.71;101762.16;4901629;29;20044;-53
2022/04/11 03:58:16;;;;;;;9.90;5.10;;;;;;;6.53;62.37;101759.66;4897638;29;20131;-49
2022/04/11 04:00:46;;;;;;;10.68;5.70;;;;;;;6.46;62.73;101762.41;4897674;29;20135;-49
2022/04/11 04:03:25;;;;;;;11.18;5.00;;;;;;;6.43;62.79;101765.56;4897474;29;20522;-51
2022/04/11 04:06:07;;;;;;;10.68;5.10;;;;;;;6.45;62.67;101768.06;4899889;29;20052;-53
2022/04/11 04:08:39;;;;;;;10.07;5.53;;;;;;;6.49;62.82;101761.13;4897507;29;20100;-50
2022/04/11 04:11:33;;;;;;;11.35;5.43;;;;;;;6.50;61.98;101766.34;4900168;29;20063;-52
2022/04/11 04:14:11;;;;;;;11.90;5.43;;;;;;;6.44;62.53;101767.19;4883641;29;20480;-53
2022/04/11 04:16:43;;;;;;;10.32;5.20;;;;;;;6.43;62.40;101770.13;4900402;29;20404;-51
2022/04/11 04:19:14;;;;;;;12.45;5.80;;;;;;;6.37;62.89;101766.41;4897422;29;20041;-50
2022/04/11 04:21:42;;;;;;;15.02;5.75;;;;;;;6.31;63.29;101768.09;4897001;29;20041;-49
2022/04/11 04:24:13;;;;;;;10.55;5.97;;;;;;;6.30;62.79;101766.47;4897479;29;20083;-50
2022/04/11 04:26:41;;;;;;;11.88;4.90;;;;;;;6.28;62.90;101760.44;4898088;29;20068;-48
2022/04/11 04:29:11;;;;;;;9.82;5.70;;;;;;;6.25;63.40;101763.53;4898622;29;20139;-47
2022/04/11 04:31:44;;;;;;;13.73;5.50;;;;;;;6.26;63.49;101753.56;4896612;29;20135;-48
2022/04/11 04:34:12;;;;;;;10.20;5.50;;;;;;;6.24;63.47;101747.53;4898099;29;20408;-52
2022/04/11 04:36:41;;;;;;;15.98;7.00;;;;;;;6.19;63.51;101742.78;4899837;29;20084;-53
2022/04/11 04:39:09;;;;;;;11.35;5.70;;;;;;;6.16;63.56;101745.94;4896729;29;20123;-52
2022/04/11 04:41:40;;;;;;;12.50;5.68;;;;;;;6.15;63.67;101741.53;4882331;29;20095;-51
2022/04/11 04:44:09;;;;;;;13.05;6.15;;;;;;;6.13;63.49;101740.91;4897518;29;20044;-48
2022/04/11 04:46:41;;;;;;;9.40;5.40;;;;;;;6.09;63.82;101745.94;4909795;29;20068;-52
2022/04/11 04:49:17;;;;;;;13.50;5.90;;;;;;;6.11;63.90;101745.72;4902940;29;20399;-52
2022/04/11 04:51:45;;;;;;;10.30;5.28;;;;;;;6.13;63.70;101743.63;4918032;29;20511;-52
2022/04/11 04:54:12;;;;;;;11.50;5.25;;;;;;;6.15;63.63;101738.84;4901632;29;20083;-52
2022/04/11 04:56:40;;;;;;;11.65;5.57;;;;;;;6.18;63.38;101743.81;4898010;29;20032;-49
2022/04/11 04:59:17;;;;;;;11.82;6.13;;;;;;;6.18;63.37;101749.22;4897080;29;20108;-52
2022/04/11 05:01:46;;;;;;;10.77;5.60;;;;;;;6.17;63.46;101742.16;4896997;29;20440;-52
2022/04/11 05:04:19;;;;;;;13.82;6.30;;;;;;;6.12;63.50;101740.09;4896852;29;20044;-54
2022/04/11 05:06:47;;;;;;;14.43;6.47;;;;;;;6.02;63.66;101736.22;4883038;29;20048;-54
2022/04/11 05:09:15;;;;;;;11.82;6.13;;;;;;;5.95;64.37;101737.06;4896710;29;20057;-53
2022/04/11 05:11:46;;;;;;;13.30;6.68;;;;;;;5.90;64.46;101731.44;4896951;29;20075;-53
2022/04/11 05:14:21;;;;;;;17.02;6.80;;;;;;;5.92;64.57;101733.94;4896728;29;20040;-54
2022/04/11 05:16:50;;;;;;;11.32;6.20;;;;;;;5.96;64.51;101733.31;4908448;29;20044;-53
2022/04/11 05:19:20;;;;;;;12.55;6.20;;;;;;;6.02;64.24;101730.81;4897705;29;20040;-54
2022/04/11 05:21:48;;;;;;;12.40;5.80;;;;;;;6.01;64.10;101739.94;4909223;29;20049;-47
2022/04/11 05:24:16;;;;;;;14.27;6.53;;;;;;;6.01;63.91;101745.34;4877894;29;20048;-48
2022/04/11 05:26:44;;;;;;;13.40;5.97;;;;;;;6.01;64.22;101748.88;4885332;29;20048;-49
2022/04/11 05:29:11;;;;;;;16.40;6.68;;;;;;;6.03;64.30;101743.25;4879180;29;20105;-50
2022/04/11 05:31:40;;;;;;;11.70;5.78;;;;;;;6.08;64.20;101740.75;4868656;29;20060;-49
2022/04/11 05:34:08;;;;;;;12.07;6.32;;;;;;;6.12;64.09;101737.41;4896130;29;20453;-49
2022/04/11 05:36:37;;;;;;;11.75;6.28;;;;;;;6.14;64.02;101739.91;4908702;29;20052;-47
2022/04/11 05:39:05;;;;;;;13.02;6.18;;;;;;;6.15;63.76;101742.38;4911736;29;20123;-50
2022/04/11 05:41:35;;;;;;;11.57;6.18;;;;;;;6.15;63.64;101744.25;4866580;29;20512;-47
2022/04/11 05:44:03;;;;;;;12.52;6.65;;;;;;;6.14;64.14;101734.47;4896061;29;20043;-47
2022/04/11 05:46:37;;;;;;;14.40;6.38;;;;;;;6.14;63.89;101748.84;4897549;29;20044;-49
2022/04/11 05:49:16;;;;;;;9.95;6.43;;;;;;;6.13;64.16;101739.06;4896504;29;20072;-43
2022/04/11 05:51:43;;;;;;;12.20;6.78;;;;;;;6.09;64.10;101737.00;4896842;29;20488;-48
2022/04/11 05:54:11;;;;;;;12.88;6.45;;;;;;;6.13;64.68;101732.81;4902264;29;20074;-48
2022/04/11 05:56:40;;;;;;;13.02;6.50;;;;;;;6.20;64.21;101728.19;4901306;29;20064;-49
2022/04/11 05:59:11;;;;;;;11.95;6.43;;;;;;;6.26;63.72;101738.16;4887510;29;20045;-48
2022/04/11 06:01:40;;;;;;;15.60;6.77;;;;;;;6.23;63.71;101735.91;4219264;29;10000819;-47
2022/04/11 06:04:08;;;;;;;13.15;7.07;;;;;;;6.18;63.88;101736.53;4907660;29;20296;-49
2022/04/11 06:06:36;;;;;;;14.52;7.30;;;;;;;6.17;64.27;101748.41;4903450;29;20131;-48
2022/04/11 06:09:05;;;;;;;12.70;6.18;;;;;;;6.26;64.37;101740.88;4898850;29;20064;-47
2022/04/11 06:11:34;;;;;;;16.40;6.32;;;;;;;6.30;64.29;101744.81;4896673;29;20052;-49
2022/04/11 06:14:03;;;;;;;13.00;6.90;;;;;;;6.27;63.97;101739.81;4897404;29;20052;-50
2022/04/11 06:16:30;;;;;;;14.10;7.47;;;;;;;6.23;64.56;101744.00;4898201;29;20104;-49
2022/04/11 06:18:58;;;;;;;14.80;7.07;;;;;;;6.22;64.38;101741.50;4895975;29;20096;-48
2022/04/11 06:21:27;;;;;;;14.88;7.20;;;;;;;6.25;64.65;101738.38;4902972;29;20124;-51
2022/04/11 06:23:56;;;;;;;13.18;6.72;;;;;;;6.30;64.45;101742.09;4889358;29;20044;-48
2022/04/11 06:26:26;;;;;;;8.57;5.55;;;;;;;6.38;64.93;101732.91;4897936;29;20060;-50
2022/04/11 06:28:55;;;;;;;15.38;7.15;;;;;;;6.46;64.38;101738.03;4909129;29;20448;-49
2022/04/11 06:31:23;;;;;;;12.13;6.97;;;;;;;6.55;64.52;101738.63;4900746;29;20052;-49
2022/04/11 06:33:57;;;;;;;14.45;6.60;;;;;;;6.61;63.98;101741.28;4916196;29;20388;-49
2022/04/11 06:36:30;;;;;;;14.10;6.82;;;;;;;6.64;63.73;101734.59;4916269;29;20044;-45
2022/04/11 06:38:58;;;;;;;13.48;6.90;;;;;;;6.59;63.26;101742.53;4900806;29;20045;-50
2022/04/11 06:41:33;;;;;;;16.45;6.65;;;;;;;6.58;63.71;101746.28;4897413;29;20105;-48
2022/04/11 06:44:01;;;;;;;14.02;6.60;;;;;;;6.62;63.94;101736.69;4901295;29;20056;-48
2022/04/11 06:46:37;;;;;;;10.25;6.22;;;;;;;6.66;63.89;101731.66;4916282;29;20044;-47
2022/04/11 06:49:05;;;;;;;11.55;6.65;;;;;;;6.68;63.95;101733.09;4901835;29;20109;-49
2022/04/11 06:51:34;;;;;;;13.50;6.32;;;;;;;6.75;64.45;101739.28;4905823;29;20044;-48
2022/04/11 06:54:01;;;;;;;14.07;6.55;;;;;;;6.77;63.64;101731.78;4899960;29;20127;-49
2022/04/11 06:56:29;;;;;;;11.63;5.93;;;;;;;6.81;64.26;101738.41;4917500;29;20055;-49
2022/04/11 06:58:57;;;;;;;12.02;6.30;;;;;;;6.86;64.02;101747.78;4906483;29;20136;-49
2022/04/11 07:01:24;;;;;;;11.50;6.15;;;;;;;6.86;64.14;101750.47;4903387;29;20047;-49
2022/04/11 07:03:52;;;;;;;11.50;6.45;;;;;;;6.86;64.47;101750.47;4902584;29;20381;-47
2022/04/11 07:06:20;;;;;;;11.32;6.70;;;;;;;6.89;64.79;101752.75;4901836;29;20059;-48
2022/04/11 07:08:48;;;;;;;13.50;6.47;;;;;;;6.89;64.66;101750.03;4899605;29;20075;-48
2022/04/11 07:11:15;;;;;;;20.58;6.93;;;;;;;6.92;64.92;101755.00;4899365;29;20048;-48
2022/04/11 07:13:44;;;;;;;12.00;6.25;;;;;;;6.96;64.78;101754.34;4899186;29;20475;-49
2022/04/11 07:16:11;;;;;;;12.90;6.07;;;;;;;7.03;64.71;101754.28;4899360;29;20044;-49
2022/04/11 07:18:39;;;;;;;10.75;5.57;;;;;;;7.07;63.99;101744.69;4900240;29;20120;-49
2022/04/11 07:21:07;;;;;;;9.68;5.30;;;;;;;7.12;64.06;101747.56;4900471;29;20056;-48
2022/04/11 07:23:34;;;;;;;13.38;6.30;;;;;;;7.16;64.62;101746.03;4908448;29;20069;-49
2022/04/11 07:26:02;;;;;;;12.52;5.70;;;;;;;7.19;65.15;101748.31;4910760;29;20147;-50
2022/04/11 07:28:30;;;;;;;10.35;5.90;;;;;;;7.22;64.63;101737.03;4907564;29;20044;-48
2022/04/11 07:30:58;;;;;;;14.63;6.88;;;;;;;7.25;64.32;101735.75;4902670;29;20154;-48
2022/04/11 07:33:32;;;;;;;16.27;6.22;;;;;;;7.28;64.40;101735.28;4909369;29;20041;-48
2022/04/11 07:35:59;;;;;;;14.60;6.97;;;;;;;7.33;65.53;101737.34;4911244;29;20049;-48
2022/04/11 07:38:27;;;;;;;17.48;6.80;;;;;;;7.34;65.78;101737.13;4899178;29;20071;-48
2022/04/11 07:40:55;;;;;;;12.07;6.50;;;;;;;7.38;65.50;101738.31;4899053;29;20123;-48
2022/04/11 07:43:23;;;;;;;11.75;6.60;;;;;;;7.44;65.55;101725.75;4898326;29;20049;-50
2022/04/11 07:45:51;;;;;;;11.75;6.53;;;;;;;7.50;65.29;101722.13;4898818;29;20060;-49
2022/04/11 07:48:19;;;;;;;10.27;6.55;;;;;;;7.52;64.93;101724.63;4897095;29;20575;-48
2022/04/11 07:50:46;;;;;;;11.85;6.00;;;;;;;7.52;65.33;101722.75;4898910;29;20480;-50
2022/04/11 07:53:14;;;;;;;25.55;7.95;;;;;;;7.56;67.37;101726.66;4898173;29;20075;-49
2022/04/11 07:55:44;;;;;;;12.25;6.28;;;;;;;7.61;65.92;101718.69;4898976;29;20044;-49
2022/04/11 07:58:12;;;;;;;15.68;7.20;;;;;;;7.65;66.14;101714.47;4898701;29;20045;-48
2022/04/11 08:00:39;;;;;;;13.93;7.10;;;;;;;7.71;67.03;101715.44;4898740;29;20068;-47
2022/04/11 08:03:07;;;;;;;12.38;5.97;;;;;;;7.77;65.76;101710.97;4898509;29;20052;-49
2022/04/11 08:05:35;;;;;;;15.52;6.35;;;;;;;7.78;65.88;101710.75;4896985;29;20048;-48
2022/04/11 08:08:02;;;;;;;14.18;7.10;;;;;;;7.80;65.10;101708.66;4898724;29;20175;-52
2022/04/11 08:10:32;;;;;;;14.95;6.90;;;;;;;7.82;64.95;101703.00;4897629;29;20060;-51
2022/04/11 08:13:00;;;;;;;13.38;6.78;;;;;;;7.85;66.04;101707.97;4898653;29;20044;-44
2022/04/11 08:15:30;;;;;;;13.38;6.00;;;;;;;7.89;65.72;101709.19;4896766;29;20522;-46
2022/04/11 08:17:58;;;;;;;14.35;7.22;;;;;;;7.96;66.40;101714.50;4898081;29;20143;-46
2022/04/11 08:20:27;;;;;;;13.25;6.78;;;;;;;8.00;65.30;101705.66;4897537;29;20051;-44
2022/04/11 08:22:54;;;;;;;13.60;6.22;;;;;;;8.03;65.17;101699.81;4898001;29;20120;-47
2022/04/11 08:25:22;;;;;;;15.95;6.13;;;;;;;8.05;65.32;101694.13;4912890;29;20047;-46
2022/04/11 08:27:51;;;;;;;23.50;6.78;;;;;;;8.07;65.98;101690.13;4896932;29;20045;-45
2022/04/11 08:30:19;;;;;;;16.60;6.50;;;;;;;8.13;65.86;101692.97;4896934;29;20433;-45
2022/04/11 08:32:49;;;;;;;11.95;6.03;;;;;;;8.18;64.82;101684.97;4898112;29;20044;-49
2022/04/11 08:35:20;;;;;;;10.90;5.38;;;;;;;8.21;65.29;101684.53;4896655;29;20048;-51
2022/04/11 08:37:48;;;;;;;10.02;4.88;;;;;;;8.30;64.44;101688.56;4898085;29;20053;-50
2022/04/11 08:40:18;;;;;;;13.60;5.10;;;;;;;8.35;63.78;101685.16;4897541;29;20041;-49
2022/04/11 08:42:48;;;;;;;12.05;6.15;;;;;;;8.36;64.53;101676.78;4896703;29;20068;-49
2022/04/11 08:45:20;;;;;;;12.60;5.60;;;;;;;8.40;64.43;101678.00;4897080;29;20054;-48
2022/04/11 08:47:48;;;;;;;10.48;5.10;;;;;;;8.45;63.51;101680.03;4896902;29;20492;-49
2022/04/11 08:50:16;;;;;;;15.23;5.97;;;;;;;8.47;64.24;101672.47;4897059;29;20476;-48
2022/04/11 08:52:44;;;;;;;13.32;5.70;;;;;;;8.49;63.92;101676.63;4896531;29;20158;-47
2022/04/11 08:55:12;;;;;;;12.70;5.82;;;;;;;8.59;63.52;101670.59;4897289;29;20040;-48
2022/04/11 08:57:39;;;;;;;12.88;5.57;;;;;;;8.66;63.04;101665.91;4897946;29;20041;-47
2022/04/11 09:00:15;;;;;;;10.70;5.45;;;;;;;8.73;62.90;101665.75;4896778;29;20055;-50
2022/04/11 09:02:44;;;;;;;11.15;5.55;;;;;;;8.79;62.56;101669.44;4898218;29;20459;-48
2022/04/11 09:05:18;;;;;;;10.85;5.57;;;;;;;8.85;62.67;101672.06;4895730;29;20500;-49
2022/04/11 09:07:50;;;;;;;11.52;5.60;;;;;;;8.90;61.81;101664.03;4897909;29;20045;-50
2022/04/11 09:10:19;;;;;;;12.07;6.10;;;;;;;8.99;62.36;101667.19;4896847;29;20048;-50
2022/04/11 09:12:49;;;;;;;14.43;5.68;;;;;;;9.10;61.89;101682.69;4896764;29;20052;-50
2022/04/11 09:15:18;;;;;;;11.65;4.97;;;;;;;9.13;60.49;101673.22;4897592;29;20583;-48
2022/04/11 09:17:46;;;;;;;17.15;6.00;;;;;;;9.17;61.18;101669.78;4897675;29;20477;-48
2022/04/11 09:20:20;;;;;;;13.88;5.90;;;;;;;9.20;61.72;101667.66;4897662;29;20036;-49
2022/04/11 09:22:48;;;;;;;9.90;4.90;;;;;;;9.16;59.75;101670.03;4897582;29;20044;-47
2022/04/11 09:25:17;;;;;;;9.60;4.60;;;;;;;9.18;59.80;101667.91;4897579;29;20051;-45
2022/04/11 09:27:47;;;;;;;10.48;4.45;;;;;;;9.26;58.31;101663.97;4897511;29;20048;-49
2022/04/11 09:30:19;;;;;;;12.43;4.82;;;;;;;9.32;58.39;101663.84;4896428;29;20049;-46
2022/04/11 09:33:07;;;;;;;14.18;4.90;;;;;;;9.44;58.73;101649.41;4897700;29;20052;-50
2022/04/11 09:35:36;;;;;;;12.13;4.90;;;;;;;9.53;58.78;101653.44;4898711;29;20047;-48
2022/04/11 09:38:11;;;;;;;12.48;5.65;;;;;;;9.57;59.29;101643.69;4901639;29;20087;-48
2022/04/11 09:40:43;;;;;;;14.65;5.78;;;;;;;9.65;59.14;101645.22;4901185;29;20088;-48
2022/04/11 09:43:13;;;;;;;13.73;5.20;;;;;;;9.63;57.38;101634.59;4900861;29;20130;-48
2022/04/11 09:45:45;;;;;;;11.73;4.97;;;;;;;9.62;56.78;101640.25;4900726;29;20485;-47
2022/04/11 09:48:18;;;;;;;14.10;5.18;;;;;;;9.60;55.32;101633.16;4901211;29;20048;-50
2022/04/11 09:50:47;;;;;;;9.85;4.70;;;;;;;9.64;54.79;101633.50;4899612;29;20048;-48
2022/04/11 09:53:20;;;;;;;10.35;4.63;;;;;;;9.71;53.59;101628.75;4900082;29;20041;-49
2022/04/11 09:55:50;;;;;;;21.05;7.53;;;;;;;9.82;54.56;101619.72;4899626;29;20048;-46
2022/04/11 09:58:23;;;;;;;10.77;4.80;;;;;;;9.91;53.92;101616.59;4899814;29;20480;-50
2022/04/11 10:00:51;;;;;;;9.65;4.60;;;;;;;10.01;53.89;101616.81;4884087;29;20519;-49
2022/04/11 10:03:23;;;;;;;10.40;4.47;;;;;;;10.13;52.90;101623.00;4901041;29;20055;-50
2022/04/11 10:05:51;;;;;;;8.27;3.80;;;;;;;10.16;51.52;101619.78;4900467;29;20044;-48
2022/04/11 10:08:21;;;;;;;13.23;5.45;;;;;;;10.17;52.51;101624.19;4900164;29;20440;-48
2022/04/11 10:10:49;;;;;;;9.52;4.43;;;;;;;10.20;53.59;101610.06;4899371;29;20551;-47
2022/04/11 10:13:17;;;;;;;12.45;5.13;;;;;;;10.23;53.61;101619.63;4899660;29;20052;-46
2022/04/11 10:15:46;;;;;;;12.05;4.85;;;;;;;10.30;53.52;101608.63;4899112;29;20041;-50
2022/04/11 10:18:16;;;;;;;11.57;4.70;;;;;;;10.42;51.97;101615.63;4900484;29;20047;-49
2022/04/11 10:20:49;;;;;;;9.00;4.13;;;;;;;10.45;50.23;101612.41;4899270;29;20445;-51
2022/04/11 10:23:56;;;;;;;10.82;4.07;;;;;;;10.44;52.39;101618.13;4899940;29;20115;-49
2022/04/11 10:26:26;;;;;;;10.48;4.07;;;;;;;10.48;49.79;101600.19;4911757;29;20049;-51
2022/04/11 10:28:54;;;;;;;11.98;4.70;;;;;;;10.57;50.36;101608.78;4896522;29;20143;-49
2022/04/11 10:31:35;;;;;;;9.70;4.07;;;;;;;10.68;48.24;101599.69;4898958;29;20500;-50
2022/04/11 10:34:03;;;;;;;13.13;5.55;;;;;;;10.73;51.52;101602.50;4902364;29;20100;-49
2022/04/11 10:36:57;;;;;;;10.57;4.57;;;;;;;10.65;50.96;101594.72;4912819;29;20395;-49
2022/04/11 10:39:25;;;;;;;18.58;6.45;;;;;;;10.66;57.02;101596.38;4901039;29;20124;-50
2022/04/11 10:41:55;;;;;;;9.25;4.13;;;;;;;10.60;49.90;101586.47;4900226;29;20503;-50
2022/04/11 10:44:36;;;;;;;12.05;4.88;;;;;;;10.64;47.99;101587.63;4901244;29;20125;-50
2022/04/11 10:47:10;;;;;;;11.88;4.47;;;;;;;10.75;48.46;101594.88;4898903;29;20041;-48
2022/04/11 10:49:58;;;;;;;8.60;4.20;;;;;;;10.82;47.30;101587.38;4900312;29;20234;-49
2022/04/11 10:52:36;;;;;;;10.38;4.10;;;;;;;10.88;46.43;101585.53;4901273;29;20160;-49
2022/04/11 10:55:17;;;;;;;8.20;4.28;;;;;;;10.99;47.58;101581.88;4902162;29;20052;-52
2022/04/11 10:57:54;;;;;;;12.30;5.22;;;;;;;11.04;46.93;101581.94;4900301;29;20084;-51
2022/04/11 11:00:22;;;;;;;9.85;4.40;;;;;;;11.00;46.85;101579.97;4917732;29;20052;-45
2022/04/11 11:02:50;;;;;;;11.63;5.18;;;;;;;10.99;46.16;101568.25;4915124;29;20047;-49
2022/04/11 11:05:30;;;;;;;10.55;4.10;;;;;;;11.11;46.25;101565.34;4899975;29;20064;-49
2022/04/11 11:08:25;;;;;;;26.65;6.10;;;;;;;11.05;45.74;101567.22;4899803;29;20048;-49
2022/04/11 11:10:55;;;;;;;9.90;4.22;;;;;;;11.03;45.96;101569.34;4899654;29;20055;-46
2022/04/11 11:13:38;;;;;;;13.95;4.72;;;;;;;11.11;46.17;101564.53;4908719;29;20048;-50
2022/04/11 11:16:09;;;;;;;11.63;5.00;;;;;;;11.13;47.34;101562.41;4898310;29;20044;-49
2022/04/11 11:18:51;;;;;;;7.78;4.05;;;;;;;11.12;46.25;101552.56;4899763;29;20064;-49
2022/04/11 11:21:44;;;;;;;10.85;4.88;;;;;;;11.06;46.99;101541.59;4899559;29;20048;-47
2022/04/11 11:24:12;;;;;;;10.88;4.40;;;;;;;11.18;47.10;101537.91;4899890;29;20116;-46
2022/04/11 11:26:45;;;;;;;13.93;5.07;;;;;;;11.15;47.02;101538.41;4899463;29;20147;-48
2022/04/11 11:29:43;;;;;;;9.27;3.97;;;;;;;11.09;44.52;101523.91;4898881;29;20037;-49
2022/04/11 11:32:12;;;;;;;12.13;4.53;;;;;;;11.14;46.99;101520.41;4899250;29;20493;-50
2022/04/11 11:34:41;;;;;;;13.57;5.22;;;;;;;11.27;53.53;101514.56;4902358;29;20504;-52
2022/04/11 11:37:13;;;;;;;12.00;4.20;;;;;;;11.31;47.99;101510.25;4910263;29;20052;-48
2022/04/11 11:39:43;;;;;;;10.80;4.70;;;;;;;11.36;46.94;101501.28;4917055;29;20044;-48
2022/04/11 11:42:14;;;;;;;13.82;5.13;;;;;;;11.36;46.35;101502.13;4908343;29;20045;-47